sensor_id;sensor_type;location;lat;lon;timestamp;P1;durP1;ratioP1;P2;durP2;ratioP2
82511;SDS011;72152;65.012;25.464;2024-03-02T00:03:05;3.80;;;1.80;;
82511;SDS011;72152;65.012;25.464;2024-03-02T00:06:15;4.10;;;1.70;;
82511;SDS011;72152;65.012;25.464;2024-03-02T00:09:21;3.90;;;1.80;;
82511;SDS011;72152;65.012;25.464;2024-03-02T00:12:23;3.20;;;1.40;;
82511;SDS011;72152;65.012;25.464;2024-03-02T00:15:29;3.20;;;1.60;;
82511;SDS011;72152;65.012;25.464;2024-03-02T00:18:44;4.30;;;1.70;;
82511;SDS011;72152;65.012;25.464;2024-03-02T00:21:51;3.20;;;1.60;;
82511;SDS011;72152;65.012;25.464;2024-03-02T00:24:58;3.20;;;1.60;;
82511;SDS011;72152;65.012;25.464;2024-03-02T00:28:05;4.10;;;1.80;;
82511;SDS011;72152;65.012;25.464;2024-03-02T00:31:17;4.90;;;2.10;;
82511;SDS011;72152;65.012;25.464;2024-03-02T00:34:25;3.90;;;1.60;;
82511;SDS011;72152;65.012;25.464;2024-03-02T00:37:34;3.10;;;1.50;;
82511;SDS011;72152;65.012;25.464;2024-03-02T00:40:44;3.40;;;1.60;;
82511;SDS011;72152;65.012;25.464;2024-03-02T00:44:05;3.00;;;1.50;;
82511;SDS011;72152;65.012;25.464;2024-03-02T00:47:11;4.80;;;1.70;;
82511;SDS011;72152;65.012;25.464;2024-03-02T00:50:21;4.20;;;1.80;;
82511;SDS011;72152;65.012;25.464;2024-03-02T00:53:23;4.20;;;1.90;;
82511;SDS011;72152;65.012;25.464;2024-03-02T00:56:29;4.50;;;1.50;;
82511;SDS011;72152;65.012;25.464;2024-03-02T00:59:31;3.90;;;1.80;;
82511;SDS011;72152;65.012;25.464;2024-03-02T01:02:29;3.70;;;1.40;;
82511;SDS011;72152;65.012;25.464;2024-03-02T01:05:34;2.80;;;1.30;;
82511;SDS011;72152;65.012;25.464;2024-03-02T01:08:41;2.30;;;1.20;;
82511;SDS011;72152;65.012;25.464;2024-03-02T01:15:03;2.80;;;1.40;;
82511;SDS011;72152;65.012;25.464;2024-03-02T01:18:13;2.30;;;1.30;;
82511;SDS011;72152;65.012;25.464;2024-03-02T01:21:19;2.50;;;1.20;;
82511;SDS011;72152;65.012;25.464;2024-03-02T01:24:18;3.50;;;1.30;;
82511;SDS011;72152;65.012;25.464;2024-03-02T01:27:23;2.50;;;1.40;;
82511;SDS011;72152;65.012;25.464;2024-03-02T01:30:23;3.30;;;1.50;;
82511;SDS011;72152;65.012;25.464;2024-03-02T01:33:25;2.60;;;1.30;;
82511;SDS011;72152;65.012;25.464;2024-03-02T01:36:28;3.10;;;1.40;;
82511;SDS011;72152;65.012;25.464;2024-03-02T01:39:33;1.90;;;1.30;;
82511;SDS011;72152;65.012;25.464;2024-03-02T01:42:40;2.40;;;1.30;;
82511;SDS011;72152;65.012;25.464;2024-03-02T01:45:41;3.10;;;1.40;;
82511;SDS011;72152;65.012;25.464;2024-03-02T01:48:44;2.30;;;1.20;;
82511;SDS011;72152;65.012;25.464;2024-03-02T01:51:52;2.40;;;1.20;;
82511;SDS011;72152;65.012;25.464;2024-03-02T01:54:58;2.50;;;1.40;;
82511;SDS011;72152;65.012;25.464;2024-03-02T01:58:00;2.80;;;1.30;;
82511;SDS011;72152;65.012;25.464;2024-03-02T02:01:03;3.10;;;1.40;;
82511;SDS011;72152;65.012;25.464;2024-03-02T02:04:12;2.20;;;1.20;;
82511;SDS011;72152;65.012;25.464;2024-03-02T02:07:23;3.20;;;1.50;;
82511;SDS011;72152;65.012;25.464;2024-03-02T02:10:27;2.40;;;1.20;;
82511;SDS011;72152;65.012;25.464;2024-03-02T02:13:30;2.30;;;1.20;;
82511;SDS011;72152;65.012;25.464;2024-03-02T02:16:33;2.20;;;1.20;;
82511;SDS011;72152;65.012;25.464;2024-03-02T02:19:38;2.50;;;1.30;;
82511;SDS011;72152;65.012;25.464;2024-03-02T02:22:46;2.90;;;1.40;;
82511;SDS011;72152;65.012;25.464;2024-03-02T02:26:02;2.00;;;1.30;;
82511;SDS011;72152;65.012;25.464;2024-03-02T02:29:06;2.40;;;1.20;;
82511;SDS011;72152;65.012;25.464;2024-03-02T02:32:13;2.40;;;1.20;;
82511;SDS011;72152;65.012;25.464;2024-03-02T02:35:20;4.30;;;1.40;;
82511;SDS011;72152;65.012;25.464;2024-03-02T02:38:25;2.20;;;1.20;;
82511;SDS011;72152;65.012;25.464;2024-03-02T02:41:33;3.20;;;1.40;;
82511;SDS011;72152;65.012;25.464;2024-03-02T02:44:38;1.60;;;1.20;;
82511;SDS011;72152;65.012;25.464;2024-03-02T02:47:40;3.20;;;1.60;;
82511;SDS011;72152;65.012;25.464;2024-03-02T02:50:45;4.20;;;1.40;;
82511;SDS011;72152;65.012;25.464;2024-03-02T02:53:49;1.80;;;1.20;;
82511;SDS011;72152;65.012;25.464;2024-03-02T02:56:57;3.10;;;1.30;;
82511;SDS011;72152;65.012;25.464;2024-03-02T03:00:04;3.00;;;1.40;;
82511;SDS011;72152;65.012;25.464;2024-03-02T03:03:10;2.90;;;1.50;;
82511;SDS011;72152;65.012;25.464;2024-03-02T03:06:18;2.80;;;1.50;;
82511;SDS011;72152;65.012;25.464;2024-03-02T03:09:20;3.00;;;1.60;;
82511;SDS011;72152;65.012;25.464;2024-03-02T03:12:22;3.00;;;1.40;;
82511;SDS011;72152;65.012;25.464;2024-03-02T03:15:28;3.70;;;1.50;;
82511;SDS011;72152;65.012;25.464;2024-03-02T03:18:37;2.60;;;1.40;;
82511;SDS011;72152;65.012;25.464;2024-03-02T03:21:43;2.70;;;1.30;;
82511;SDS011;72152;65.012;25.464;2024-03-02T03:24:51;3.30;;;1.60;;
82511;SDS011;72152;65.012;25.464;2024-03-02T03:28:00;2.30;;;1.20;;
82511;SDS011;72152;65.012;25.464;2024-03-02T03:31:06;3.40;;;1.40;;
82511;SDS011;72152;65.012;25.464;2024-03-02T03:34:15;3.20;;;1.50;;
82511;SDS011;72152;65.012;25.464;2024-03-02T03:37:19;2.90;;;1.30;;
82511;SDS011;72152;65.012;25.464;2024-03-02T03:40:25;3.00;;;1.50;;
82511;SDS011;72152;65.012;25.464;2024-03-02T03:43:26;3.40;;;1.70;;
82511;SDS011;72152;65.012;25.464;2024-03-02T03:46:34;3.10;;;1.60;;
82511;SDS011;72152;65.012;25.464;2024-03-02T03:49:37;2.30;;;1.40;;
82511;SDS011;72152;65.012;25.464;2024-03-02T03:52:39;2.20;;;1.40;;
82511;SDS011;72152;65.012;25.464;2024-03-02T03:55:46;3.20;;;1.30;;
82511;SDS011;72152;65.012;25.464;2024-03-02T03:58:45;3.00;;;1.40;;
82511;SDS011;72152;65.012;25.464;2024-03-02T04:04:52;3.40;;;1.40;;
82511;SDS011;72152;65.012;25.464;2024-03-02T04:08:04;2.90;;;1.40;;
82511;SDS011;72152;65.012;25.464;2024-03-02T04:11:07;3.20;;;1.50;;
82511;SDS011;72152;65.012;25.464;2024-03-02T04:14:10;3.70;;;1.80;;
82511;SDS011;72152;65.012;25.464;2024-03-02T04:17:16;3.90;;;1.80;;
82511;SDS011;72152;65.012;25.464;2024-03-02T04:20:23;3.80;;;1.70;;
82511;SDS011;72152;65.012;25.464;2024-03-02T04:23:30;3.80;;;1.70;;
82511;SDS011;72152;65.012;25.464;2024-03-02T04:26:38;3.30;;;1.80;;
82511;SDS011;72152;65.012;25.464;2024-03-02T04:29:40;4.40;;;2.00;;
82511;SDS011;72152;65.012;25.464;2024-03-02T04:32:46;4.70;;;1.80;;
82511;SDS011;72152;65.012;25.464;2024-03-02T04:35:53;4.20;;;1.80;;
82511;SDS011;72152;65.012;25.464;2024-03-02T04:39:01;4.80;;;2.10;;
82511;SDS011;72152;65.012;25.464;2024-03-02T04:42:09;4.40;;;2.00;;
82511;SDS011;72152;65.012;25.464;2024-03-02T04:45:16;4.10;;;1.90;;
82511;SDS011;72152;65.012;25.464;2024-03-02T04:48:24;4.70;;;2.20;;
82511;SDS011;72152;65.012;25.464;2024-03-02T04:51:30;5.30;;;2.10;;
82511;SDS011;72152;65.012;25.464;2024-03-02T04:54:40;4.70;;;2.30;;
82511;SDS011;72152;65.012;25.464;2024-03-02T04:57:59;6.20;;;2.10;;
82511;SDS011;72152;65.012;25.464;2024-03-02T05:01:10;4.70;;;2.30;;
82511;SDS011;72152;65.012;25.464;2024-03-02T05:04:17;4.30;;;2.20;;
82511;SDS011;72152;65.012;25.464;2024-03-02T05:07:21;6.80;;;2.40;;
82511;SDS011;72152;65.012;25.464;2024-03-02T05:10:28;4.60;;;2.40;;
82511;SDS011;72152;65.012;25.464;2024-03-02T05:13:39;5.00;;;2.50;;
82511;SDS011;72152;65.012;25.464;2024-03-02T05:16:40;4.30;;;2.30;;
82511;SDS011;72152;65.012;25.464;2024-03-02T05:19:47;5.30;;;2.60;;
82511;SDS011;72152;65.012;25.464;2024-03-02T05:22:53;5.30;;;2.70;;
82511;SDS011;72152;65.012;25.464;2024-03-02T05:26:00;5.80;;;2.80;;
82511;SDS011;72152;65.012;25.464;2024-03-02T05:29:16;6.10;;;3.00;;
82511;SDS011;72152;65.012;25.464;2024-03-02T05:32:23;6.00;;;2.60;;
82511;SDS011;72152;65.012;25.464;2024-03-02T05:35:30;5.40;;;2.50;;
82511;SDS011;72152;65.012;25.464;2024-03-02T05:38:40;7.10;;;2.90;;
82511;SDS011;72152;65.012;25.464;2024-03-02T05:41:46;6.60;;;2.90;;
82511;SDS011;72152;65.012;25.464;2024-03-02T05:44:51;5.30;;;2.90;;
82511;SDS011;72152;65.012;25.464;2024-03-02T05:47:48;5.10;;;2.90;;
82511;SDS011;72152;65.012;25.464;2024-03-02T05:50:54;4.20;;;2.60;;
82511;SDS011;72152;65.012;25.464;2024-03-02T05:54:04;6.20;;;2.80;;
82511;SDS011;72152;65.012;25.464;2024-03-02T05:57:12;5.00;;;2.60;;
82511;SDS011;72152;65.012;25.464;2024-03-02T06:00:40;5.20;;;2.60;;
82511;SDS011;72152;65.012;25.464;2024-03-02T06:03:48;4.50;;;2.20;;
82511;SDS011;72152;65.012;25.464;2024-03-02T06:06:55;4.90;;;2.50;;
82511;SDS011;72152;65.012;25.464;2024-03-02T06:10:02;4.30;;;2.20;;
82511;SDS011;72152;65.012;25.464;2024-03-02T06:13:11;5.20;;;2.20;;
82511;SDS011;72152;65.012;25.464;2024-03-02T06:16:20;4.00;;;2.10;;
82511;SDS011;72152;65.012;25.464;2024-03-02T06:19:28;3.80;;;1.90;;
82511;SDS011;72152;65.012;25.464;2024-03-02T06:22:33;4.00;;;2.00;;
82511;SDS011;72152;65.012;25.464;2024-03-02T06:25:39;5.20;;;2.50;;
82511;SDS011;72152;65.012;25.464;2024-03-02T06:28:44;4.40;;;1.90;;
82511;SDS011;72152;65.012;25.464;2024-03-02T06:31:51;3.30;;;1.60;;
82511;SDS011;72152;65.012;25.464;2024-03-02T06:34:58;3.50;;;2.00;;
82511;SDS011;72152;65.012;25.464;2024-03-02T06:38:04;4.00;;;1.90;;
82511;SDS011;72152;65.012;25.464;2024-03-02T06:41:10;4.60;;;1.80;;
82511;SDS011;72152;65.012;25.464;2024-03-02T06:44:16;4.30;;;1.90;;
82511;SDS011;72152;65.012;25.464;2024-03-02T06:47:28;4.50;;;1.80;;
82511;SDS011;72152;65.012;25.464;2024-03-02T06:50:34;4.50;;;1.70;;
82511;SDS011;72152;65.012;25.464;2024-03-02T06:56:38;3.80;;;1.80;;
82511;SDS011;72152;65.012;25.464;2024-03-02T06:59:46;3.30;;;1.80;;
82511;SDS011;72152;65.012;25.464;2024-03-02T07:02:47;3.10;;;1.30;;
82511;SDS011;72152;65.012;25.464;2024-03-02T07:05:53;3.00;;;1.30;;
82511;SDS011;72152;65.012;25.464;2024-03-02T07:09:01;3.80;;;1.80;;
82511;SDS011;72152;65.012;25.464;2024-03-02T07:12:10;4.00;;;1.70;;
82511;SDS011;72152;65.012;25.464;2024-03-02T07:15:16;3.70;;;1.60;;
82511;SDS011;72152;65.012;25.464;2024-03-02T07:18:37;4.00;;;2.00;;
82511;SDS011;72152;65.012;25.464;2024-03-02T07:21:47;35.50;;;12.30;;
82511;SDS011;72152;65.012;25.464;2024-03-02T07:24:53;11.00;;;4.90;;
82511;SDS011;72152;65.012;25.464;2024-03-02T07:28:07;4.70;;;2.10;;
82511;SDS011;72152;65.012;25.464;2024-03-02T07:31:17;3.80;;;1.50;;
82511;SDS011;72152;65.012;25.464;2024-03-02T07:34:22;3.30;;;1.60;;
82511;SDS011;72152;65.012;25.464;2024-03-02T07:37:28;3.00;;;1.50;;
82511;SDS011;72152;65.012;25.464;2024-03-02T07:40:33;3.10;;;1.40;;
82511;SDS011;72152;65.012;25.464;2024-03-02T07:43:43;3.30;;;1.50;;
82511;SDS011;72152;65.012;25.464;2024-03-02T07:46:44;4.50;;;1.70;;
82511;SDS011;72152;65.012;25.464;2024-03-02T07:50:01;4.80;;;1.70;;
82511;SDS011;72152;65.012;25.464;2024-03-02T07:53:09;3.20;;;1.70;;
82511;SDS011;72152;65.012;25.464;2024-03-02T07:56:15;3.90;;;1.60;;
82511;SDS011;72152;65.012;25.464;2024-03-02T08:03:04;11.40;;;5.00;;
82511;SDS011;72152;65.012;25.464;2024-03-02T08:06:17;5.70;;;2.40;;
82511;SDS011;72152;65.012;25.464;2024-03-02T08:09:24;2.90;;;1.50;;
82511;SDS011;72152;65.012;25.464;2024-03-02T08:12:29;3.70;;;1.70;;
82511;SDS011;72152;65.012;25.464;2024-03-02T08:15:32;4.40;;;1.80;;
82511;SDS011;72152;65.012;25.464;2024-03-02T08:18:41;3.70;;;1.70;;
82511;SDS011;72152;65.012;25.464;2024-03-02T08:21:46;3.70;;;1.40;;
82511;SDS011;72152;65.012;25.464;2024-03-02T08:24:49;4.30;;;1.60;;
82511;SDS011;72152;65.012;25.464;2024-03-02T08:27:55;2.90;;;1.40;;
82511;SDS011;72152;65.012;25.464;2024-03-02T08:31:05;2.90;;;1.50;;
82511;SDS011;72152;65.012;25.464;2024-03-02T08:34:22;4.50;;;2.10;;
82511;SDS011;72152;65.012;25.464;2024-03-02T08:37:32;3.20;;;1.60;;
82511;SDS011;72152;65.012;25.464;2024-03-02T08:40:39;4.20;;;1.60;;
82511;SDS011;72152;65.012;25.464;2024-03-02T08:43:46;3.70;;;1.80;;
82511;SDS011;72152;65.012;25.464;2024-03-02T08:46:46;2.90;;;1.50;;
82511;SDS011;72152;65.012;25.464;2024-03-02T08:49:48;3.40;;;1.50;;
82511;SDS011;72152;65.012;25.464;2024-03-02T08:52:56;2.80;;;1.50;;
82511;SDS011;72152;65.012;25.464;2024-03-02T08:55:57;3.00;;;1.40;;
82511;SDS011;72152;65.012;25.464;2024-03-02T08:59:06;3.80;;;1.90;;
82511;SDS011;72152;65.012;25.464;2024-03-02T09:02:13;4.00;;;1.90;;
82511;SDS011;72152;65.012;25.464;2024-03-02T09:05:19;5.10;;;2.00;;
82511;SDS011;72152;65.012;25.464;2024-03-02T09:08:30;3.70;;;1.90;;
82511;SDS011;72152;65.012;25.464;2024-03-02T09:11:36;6.50;;;2.50;;
82511;SDS011;72152;65.012;25.464;2024-03-02T09:14:44;4.60;;;2.10;;
82511;SDS011;72152;65.012;25.464;2024-03-02T09:17:56;4.40;;;1.90;;
82511;SDS011;72152;65.012;25.464;2024-03-02T09:21:04;4.00;;;2.20;;
82511;SDS011;72152;65.012;25.464;2024-03-02T09:24:15;3.70;;;1.70;;
82511;SDS011;72152;65.012;25.464;2024-03-02T09:27:24;5.00;;;1.70;;
82511;SDS011;72152;65.012;25.464;2024-03-02T09:30:33;5.60;;;2.00;;
82511;SDS011;72152;65.012;25.464;2024-03-02T09:33:43;4.00;;;1.80;;
82511;SDS011;72152;65.012;25.464;2024-03-02T09:36:50;4.40;;;2.00;;
82511;SDS011;72152;65.012;25.464;2024-03-02T09:39:58;4.90;;;1.90;;
82511;SDS011;72152;65.012;25.464;2024-03-02T09:43:04;5.00;;;1.90;;
82511;SDS011;72152;65.012;25.464;2024-03-02T09:46:13;4.60;;;2.20;;
82511;SDS011;72152;65.012;25.464;2024-03-02T09:49:16;4.90;;;1.90;;
82511;SDS011;72152;65.012;25.464;2024-03-02T09:52:21;3.90;;;1.70;;
82511;SDS011;72152;65.012;25.464;2024-03-02T09:55:33;4.40;;;1.90;;
82511;SDS011;72152;65.012;25.464;2024-03-02T09:58:44;5.00;;;1.90;;
82511;SDS011;72152;65.012;25.464;2024-03-02T10:05:03;4.70;;;2.30;;
82511;SDS011;72152;65.012;25.464;2024-03-02T10:08:14;7.80;;;3.10;;
82511;SDS011;72152;65.012;25.464;2024-03-02T10:11:33;4.60;;;2.00;;
82511;SDS011;72152;65.012;25.464;2024-03-02T10:14:38;3.60;;;2.00;;
82511;SDS011;72152;65.012;25.464;2024-03-02T10:18:02;4.00;;;2.10;;
82511;SDS011;72152;65.012;25.464;2024-03-02T10:21:18;4.30;;;1.90;;
82511;SDS011;72152;65.012;25.464;2024-03-02T10:24:25;4.40;;;1.90;;
82511;SDS011;72152;65.012;25.464;2024-03-02T10:27:36;6.80;;;2.20;;
82511;SDS011;72152;65.012;25.464;2024-03-02T10:30:44;4.80;;;2.10;;
82511;SDS011;72152;65.012;25.464;2024-03-02T10:33:49;3.60;;;2.00;;
82511;SDS011;72152;65.012;25.464;2024-03-02T10:36:56;4.20;;;2.00;;
82511;SDS011;72152;65.012;25.464;2024-03-02T10:40:01;4.50;;;2.20;;
82511;SDS011;72152;65.012;25.464;2024-03-02T10:43:12;4.10;;;2.00;;
82511;SDS011;72152;65.012;25.464;2024-03-02T10:46:14;4.50;;;2.20;;
82511;SDS011;72152;65.012;25.464;2024-03-02T10:49:29;3.80;;;1.90;;
82511;SDS011;72152;65.012;25.464;2024-03-02T10:52:36;5.10;;;2.00;;
82511;SDS011;72152;65.012;25.464;2024-03-02T10:55:36;4.60;;;2.00;;
82511;SDS011;72152;65.012;25.464;2024-03-02T10:58:42;4.60;;;2.10;;
82511;SDS011;72152;65.012;25.464;2024-03-02T11:01:53;5.00;;;2.30;;
82511;SDS011;72152;65.012;25.464;2024-03-02T11:05:02;6.60;;;2.60;;
82511;SDS011;72152;65.012;25.464;2024-03-02T11:08:17;4.50;;;2.30;;
82511;SDS011;72152;65.012;25.464;2024-03-02T11:11:26;4.30;;;2.40;;
82511;SDS011;72152;65.012;25.464;2024-03-02T11:14:34;4.50;;;2.40;;
82511;SDS011;72152;65.012;25.464;2024-03-02T11:17:44;4.30;;;2.10;;
82511;SDS011;72152;65.012;25.464;2024-03-02T11:20:42;4.40;;;2.00;;
82511;SDS011;72152;65.012;25.464;2024-03-02T11:23:47;4.90;;;2.20;;
82511;SDS011;72152;65.012;25.464;2024-03-02T11:26:55;4.40;;;2.20;;
82511;SDS011;72152;65.012;25.464;2024-03-02T11:30:05;5.70;;;2.40;;
82511;SDS011;72152;65.012;25.464;2024-03-02T11:33:36;4.30;;;2.00;;
82511;SDS011;72152;65.012;25.464;2024-03-02T11:36:42;4.80;;;2.20;;
82511;SDS011;72152;65.012;25.464;2024-03-02T11:39:51;4.30;;;2.10;;
82511;SDS011;72152;65.012;25.464;2024-03-02T11:42:57;4.70;;;2.20;;
82511;SDS011;72152;65.012;25.464;2024-03-02T11:46:05;6.40;;;2.60;;
82511;SDS011;72152;65.012;25.464;2024-03-02T11:49:02;5.60;;;2.60;;
82511;SDS011;72152;65.012;25.464;2024-03-02T11:52:11;5.60;;;2.80;;
82511;SDS011;72152;65.012;25.464;2024-03-02T11:55:17;5.10;;;2.30;;
82511;SDS011;72152;65.012;25.464;2024-03-02T11:58:28;4.60;;;2.10;;
82511;SDS011;72152;65.012;25.464;2024-03-02T12:01:26;9.50;;;3.90;;
82511;SDS011;72152;65.012;25.464;2024-03-02T12:04:33;6.20;;;2.80;;
82511;SDS011;72152;65.012;25.464;2024-03-02T12:07:40;5.70;;;2.70;;
82511;SDS011;72152;65.012;25.464;2024-03-02T12:10:43;6.20;;;2.50;;
82511;SDS011;72152;65.012;25.464;2024-03-02T12:14:05;5.20;;;2.50;;
82511;SDS011;72152;65.012;25.464;2024-03-02T12:17:11;5.60;;;2.30;;
82511;SDS011;72152;65.012;25.464;2024-03-02T12:20:16;4.90;;;2.50;;
82511;SDS011;72152;65.012;25.464;2024-03-02T12:23:16;7.30;;;3.00;;
82511;SDS011;72152;65.012;25.464;2024-03-02T12:26:18;6.30;;;2.90;;
82511;SDS011;72152;65.012;25.464;2024-03-02T12:29:21;9.00;;;2.90;;
82511;SDS011;72152;65.012;25.464;2024-03-02T12:32:32;9.80;;;3.10;;
82511;SDS011;72152;65.012;25.464;2024-03-02T12:35:41;5.70;;;2.90;;
82511;SDS011;72152;65.012;25.464;2024-03-02T12:38:49;6.70;;;2.60;;
82511;SDS011;72152;65.012;25.464;2024-03-02T12:41:54;6.30;;;2.50;;
82511;SDS011;72152;65.012;25.464;2024-03-02T12:45:02;7.10;;;2.90;;
82511;SDS011;72152;65.012;25.464;2024-03-02T12:48:16;6.10;;;2.30;;
82511;SDS011;72152;65.012;25.464;2024-03-02T12:51:19;6.10;;;2.90;;
82511;SDS011;72152;65.012;25.464;2024-03-02T12:54:25;5.50;;;2.70;;
82511;SDS011;72152;65.012;25.464;2024-03-02T12:57:32;6.40;;;2.90;;
82511;SDS011;72152;65.012;25.464;2024-03-02T13:00:42;7.60;;;2.80;;
82511;SDS011;72152;65.012;25.464;2024-03-02T13:04:03;7.70;;;2.80;;
82511;SDS011;72152;65.012;25.464;2024-03-02T13:07:12;5.90;;;2.70;;
82511;SDS011;72152;65.012;25.464;2024-03-02T13:10:22;7.50;;;2.70;;
82511;SDS011;72152;65.012;25.464;2024-03-02T13:13:26;4.40;;;2.40;;
82511;SDS011;72152;65.012;25.464;2024-03-02T13:16:49;7.80;;;3.60;;
82511;SDS011;72152;65.012;25.464;2024-03-02T13:19:57;6.80;;;3.50;;
82511;SDS011;72152;65.012;25.464;2024-03-02T13:22:58;6.60;;;2.80;;
82511;SDS011;72152;65.012;25.464;2024-03-02T13:26:00;5.10;;;2.80;;
82511;SDS011;72152;65.012;25.464;2024-03-02T13:29:06;7.30;;;2.50;;
82511;SDS011;72152;65.012;25.464;2024-03-02T13:32:13;7.60;;;2.70;;
82511;SDS011;72152;65.012;25.464;2024-03-02T13:35:17;7.70;;;2.80;;
82511;SDS011;72152;65.012;25.464;2024-03-02T13:38:26;6.00;;;2.70;;
82511;SDS011;72152;65.012;25.464;2024-03-02T13:41:33;6.40;;;2.60;;
82511;SDS011;72152;65.012;25.464;2024-03-02T13:44:46;6.90;;;2.60;;
82511;SDS011;72152;65.012;25.464;2024-03-02T13:47:48;6.10;;;3.00;;
82511;SDS011;72152;65.012;25.464;2024-03-02T13:50:54;4.90;;;2.60;;
82511;SDS011;72152;65.012;25.464;2024-03-02T13:54:04;7.80;;;2.80;;
82511;SDS011;72152;65.012;25.464;2024-03-02T13:57:11;6.30;;;2.70;;
82511;SDS011;72152;65.012;25.464;2024-03-02T14:00:19;8.00;;;2.70;;
82511;SDS011;72152;65.012;25.464;2024-03-02T14:03:31;7.20;;;3.00;;
82511;SDS011;72152;65.012;25.464;2024-03-02T14:06:39;6.90;;;3.20;;
82511;SDS011;72152;65.012;25.464;2024-03-02T14:09:42;6.10;;;3.00;;
82511;SDS011;72152;65.012;25.464;2024-03-02T14:12:47;7.50;;;2.90;;
82511;SDS011;72152;65.012;25.464;2024-03-02T14:15:54;7.10;;;3.00;;
82511;SDS011;72152;65.012;25.464;2024-03-02T14:19:08;5.20;;;2.40;;
82511;SDS011;72152;65.012;25.464;2024-03-02T14:22:13;6.90;;;2.90;;
82511;SDS011;72152;65.012;25.464;2024-03-02T14:25:16;6.60;;;2.90;;
82511;SDS011;72152;65.012;25.464;2024-03-02T14:28:26;7.20;;;3.20;;
82511;SDS011;72152;65.012;25.464;2024-03-02T14:31:30;8.10;;;3.00;;
82511;SDS011;72152;65.012;25.464;2024-03-02T14:34:36;5.90;;;2.80;;
82511;SDS011;72152;65.012;25.464;2024-03-02T14:37:40;7.50;;;2.80;;
82511;SDS011;72152;65.012;25.464;2024-03-02T14:40:46;6.60;;;3.10;;
82511;SDS011;72152;65.012;25.464;2024-03-02T14:43:51;6.20;;;2.80;;
82511;SDS011;72152;65.012;25.464;2024-03-02T14:46:58;5.40;;;2.30;;
82511;SDS011;72152;65.012;25.464;2024-03-02T14:50:04;6.90;;;2.90;;
82511;SDS011;72152;65.012;25.464;2024-03-02T14:53:03;5.90;;;3.00;;
82511;SDS011;72152;65.012;25.464;2024-03-02T14:56:13;8.50;;;2.80;;
82511;SDS011;72152;65.012;25.464;2024-03-02T14:59:27;8.80;;;2.80;;
82511;SDS011;72152;65.012;25.464;2024-03-02T15:02:40;5.40;;;2.40;;
82511;SDS011;72152;65.012;25.464;2024-03-02T15:05:48;5.40;;;2.80;;
82511;SDS011;72152;65.012;25.464;2024-03-02T15:08:57;6.60;;;3.00;;
82511;SDS011;72152;65.012;25.464;2024-03-02T15:12:00;6.70;;;3.00;;
82511;SDS011;72152;65.012;25.464;2024-03-02T15:15:07;7.50;;;2.80;;
82511;SDS011;72152;65.012;25.464;2024-03-02T15:18:13;6.00;;;2.90;;
82511;SDS011;72152;65.012;25.464;2024-03-02T15:21:21;7.90;;;3.20;;
82511;SDS011;72152;65.012;25.464;2024-03-02T15:24:27;7.60;;;3.30;;
82511;SDS011;72152;65.012;25.464;2024-03-02T15:27:36;6.90;;;2.80;;
82511;SDS011;72152;65.012;25.464;2024-03-02T15:30:51;5.10;;;2.50;;
82511;SDS011;72152;65.012;25.464;2024-03-02T15:33:55;7.40;;;2.80;;
82511;SDS011;72152;65.012;25.464;2024-03-02T15:37:01;8.00;;;3.20;;
82511;SDS011;72152;65.012;25.464;2024-03-02T15:40:08;7.90;;;3.10;;
82511;SDS011;72152;65.012;25.464;2024-03-02T15:43:05;7.40;;;3.00;;
82511;SDS011;72152;65.012;25.464;2024-03-02T15:46:11;7.80;;;3.50;;
82511;SDS011;72152;65.012;25.464;2024-03-02T15:49:13;5.70;;;3.00;;
82511;SDS011;72152;65.012;25.464;2024-03-02T15:52:19;6.20;;;3.20;;
82511;SDS011;72152;65.012;25.464;2024-03-02T15:55:29;7.80;;;3.60;;
82511;SDS011;72152;65.012;25.464;2024-03-02T15:58:34;9.50;;;3.60;;
82511;SDS011;72152;65.012;25.464;2024-03-02T16:01:39;8.20;;;3.90;;
82511;SDS011;72152;65.012;25.464;2024-03-02T16:04:51;7.60;;;3.30;;
82511;SDS011;72152;65.012;25.464;2024-03-02T16:07:57;8.60;;;3.60;;
82511;SDS011;72152;65.012;25.464;2024-03-02T16:11:11;8.10;;;3.70;;
82511;SDS011;72152;65.012;25.464;2024-03-02T16:14:13;7.80;;;3.70;;
82511;SDS011;72152;65.012;25.464;2024-03-02T16:17:18;8.20;;;4.00;;
82511;SDS011;72152;65.012;25.464;2024-03-02T16:20:25;9.20;;;3.80;;
82511;SDS011;72152;65.012;25.464;2024-03-02T16:23:28;8.50;;;4.20;;
82511;SDS011;72152;65.012;25.464;2024-03-02T16:26:36;8.20;;;3.80;;
82511;SDS011;72152;65.012;25.464;2024-03-02T16:29:38;9.40;;;4.00;;
82511;SDS011;72152;65.012;25.464;2024-03-02T16:32:40;7.70;;;3.40;;
82511;SDS011;72152;65.012;25.464;2024-03-02T16:35:48;7.90;;;3.50;;
82511;SDS011;72152;65.012;25.464;2024-03-02T16:38:58;9.90;;;4.30;;
82511;SDS011;72152;65.012;25.464;2024-03-02T16:42:01;10.20;;;4.50;;
82511;SDS011;72152;65.012;25.464;2024-03-02T16:45:03;9.50;;;4.10;;
82511;SDS011;72152;65.012;25.464;2024-03-02T16:48:14;8.70;;;4.10;;
82511;SDS011;72152;65.012;25.464;2024-03-02T16:51:28;11.40;;;4.80;;
82511;SDS011;72152;65.012;25.464;2024-03-02T16:54:36;8.10;;;3.80;;
82511;SDS011;72152;65.012;25.464;2024-03-02T16:57:42;9.60;;;4.50;;
82511;SDS011;72152;65.012;25.464;2024-03-02T17:04:03;8.50;;;4.30;;
82511;SDS011;72152;65.012;25.464;2024-03-02T17:07:04;9.30;;;4.60;;
82511;SDS011;72152;65.012;25.464;2024-03-02T17:10:19;8.20;;;4.10;;
82511;SDS011;72152;65.012;25.464;2024-03-02T17:13:16;11.80;;;4.30;;
82511;SDS011;72152;65.012;25.464;2024-03-02T17:16:22;7.40;;;3.90;;
82511;SDS011;72152;65.012;25.464;2024-03-02T17:19:27;9.00;;;4.00;;
82511;SDS011;72152;65.012;25.464;2024-03-02T17:22:33;9.40;;;4.60;;
82511;SDS011;72152;65.012;25.464;2024-03-02T17:25:42;7.90;;;3.70;;
82511;SDS011;72152;65.012;25.464;2024-03-02T17:28:49;8.90;;;4.40;;
82511;SDS011;72152;65.012;25.464;2024-03-02T17:31:58;6.80;;;3.80;;
82511;SDS011;72152;65.012;25.464;2024-03-02T17:35:05;8.70;;;3.70;;
82511;SDS011;72152;65.012;25.464;2024-03-02T17:38:08;10.10;;;4.50;;
82511;SDS011;72152;65.012;25.464;2024-03-02T17:41:16;8.00;;;3.90;;
82511;SDS011;72152;65.012;25.464;2024-03-02T17:44:21;7.60;;;3.90;;
82511;SDS011;72152;65.012;25.464;2024-03-02T17:47:28;9.20;;;3.90;;
82511;SDS011;72152;65.012;25.464;2024-03-02T17:50:38;8.60;;;4.00;;
82511;SDS011;72152;65.012;25.464;2024-03-02T17:53:49;6.30;;;3.70;;
82511;SDS011;72152;65.012;25.464;2024-03-02T17:57:04;7.30;;;4.10;;
82511;SDS011;72152;65.012;25.464;2024-03-02T18:00:19;8.70;;;4.10;;
82511;SDS011;72152;65.012;25.464;2024-03-02T18:03:29;9.10;;;4.10;;
82511;SDS011;72152;65.012;25.464;2024-03-02T18:06:40;9.90;;;5.50;;
82511;SDS011;72152;65.012;25.464;2024-03-02T18:09:44;8.70;;;4.40;;
82511;SDS011;72152;65.012;25.464;2024-03-02T18:12:53;9.40;;;4.20;;
82511;SDS011;72152;65.012;25.464;2024-03-02T18:15:57;8.80;;;4.20;;
82511;SDS011;72152;65.012;25.464;2024-03-02T18:19:02;8.50;;;4.20;;
82511;SDS011;72152;65.012;25.464;2024-03-02T18:22:13;7.90;;;3.90;;
82511;SDS011;72152;65.012;25.464;2024-03-02T18:25:14;7.90;;;3.80;;
82511;SDS011;72152;65.012;25.464;2024-03-02T18:28:13;6.20;;;3.10;;
82511;SDS011;72152;65.012;25.464;2024-03-02T18:31:16;7.40;;;3.60;;
82511;SDS011;72152;65.012;25.464;2024-03-02T18:34:22;8.30;;;4.10;;
82511;SDS011;72152;65.012;25.464;2024-03-02T18:37:28;6.60;;;3.50;;
82511;SDS011;72152;65.012;25.464;2024-03-02T18:40:34;6.80;;;3.30;;
82511;SDS011;72152;65.012;25.464;2024-03-02T18:43:42;6.80;;;3.50;;
82511;SDS011;72152;65.012;25.464;2024-03-02T18:46:49;8.00;;;4.10;;
82511;SDS011;72152;65.012;25.464;2024-03-02T18:49:55;6.50;;;3.20;;